To NAV CANADA Home Page Login to a new session Search on AWWS site Disclaimer Vers la page française équivalente Tips FAQ What's new on the site To the Forecasts and Observations / NOTAM section To "File a Flight Plan" website Publications and other links Update of the User's profile FIC Telephone Numbers My Weather Data Folder Route Weather Data Regional Weather Data Local Weather Data To the Forecasts and Observations / NOTAM section
Request Generated 04/22/2019 at 12:33:43 UTC . Weather information available at that time is displayed.

METAR/TAF

KINGSTON/ON    

METAR CYGK 221200Z 34003KT 300V360 15SM BKN024 BKN150 07/07 A3025 RMK SC6AC1 SLP248=
METAR CYGK 221100Z 00000KT 15SM BKN024 BKN150 06/06 A3023 RMK SC6AC1 SLP240=
METAR CYGK 221000Z 00000KT 15SM BKN024 06/06 A3021 RMK SC7 SLP236=

TAF CYGK 221139Z 2212/2224 VRB03KT P6SM BKN025 TEMPO 2212/2218 BKN020
FM221800 VRB03KT P6SM SCT030 SCT100
BECMG 2218/2220 03007KT
RMK NXT FCST BY 221400Z=
Your time UTC time
Weather data provided by Environment Canada and NAV CANADA